Time;durP1;ratioP1;P1;durP2;ratioP2;P2;SDS_P1;SDS_P2;PMS_P1;PMS_P2;Temp;Humidity;BMP_temperature;BMP_pressure;BME280_temperature;BME280_humidity;BME280_pressure;Samples;Min_cycle;Max_cycle;Signal;HPM_P1;HPM_P2
2023/07/05 00:02:02;;;;;;;6.63;2.60;;;;;;;;;;5041623;28;20046;-60
2023/07/05 00:04:29;;;;;;;5.35;2.60;;;;;;;;;;5028119;28;20048;-60
2023/07/05 00:06:55;;;;;;;6.22;2.85;;;;;;;;;;5039983;28;20036;-59
2023/07/05 00:09:21;;;;;;;5.32;2.47;;;;;;;;;;5033934;28;20068;-60
2023/07/05 00:11:47;;;;;;;6.45;2.97;;;;;;;;;;5022251;28;20064;-60
2023/07/05 00:14:13;;;;;;;5.25;2.33;;;;;;;;;;5034349;28;20039;-59
2023/07/05 00:16:39;;;;;;;5.05;2.70;;;;;;;;;;5032692;28;20034;-59
2023/07/05 00:19:07;;;;;;;7.55;2.53;;;;;;;;;;5027628;28;20042;-60
2023/07/05 00:21:34;;;;;;;5.65;2.40;;;;;;;;;;5030160;28;20037;-59
2023/07/05 00:24:01;;;;;;;5.18;2.88;;;;;;;;;;5029204;28;20510;-59
2023/07/05 00:26:27;;;;;;;4.38;2.70;;;;;;;;;;5025372;28;20531;-59
2023/07/05 00:28:53;;;;;;;4.65;2.55;;;;;;;;;;5039204;28;20053;-59
2023/07/05 00:31:19;;;;;;;4.25;2.65;;;;;;;;;;5033548;28;20045;-59
2023/07/05 00:33:45;;;;;;;3.55;2.40;;;;;;;;;;5027272;28;20052;-60
2023/07/05 00:36:12;;;;;;;6.00;3.00;;;;;;;;;;5032471;28;20021;-60
2023/07/05 00:38:38;;;;;;;7.40;2.72;;;;;;;;;;5033624;28;20053;-59
2023/07/05 00:41:04;;;;;;;5.70;3.05;;;;;;;;;;5031878;28;20036;-60
2023/07/05 00:43:31;;;;;;;8.48;2.90;;;;;;;;;;5027400;28;20431;-60
2023/07/05 00:46:18;;;;;;;6.88;3.58;;;;;;;;;;5026376;28;20038;-59
2023/07/05 00:48:53;;;;;;;7.28;2.85;;;;;;;;;;5029524;28;20383;-59
2023/07/05 00:51:24;;;;;;;5.72;3.00;;;;;;;;;;5031123;28;20520;-60
2023/07/05 00:53:54;;;;;;;8.20;2.88;;;;;;;;;;5027668;28;20054;-59
2023/07/05 00:56:25;;;;;;;7.57;3.10;;;;;;;;;;5030205;28;20047;-60
2023/07/05 00:58:52;;;;;;;5.97;2.97;;;;;;;;;;5031943;28;20042;-60
2023/07/05 01:01:19;;;;;;;8.18;2.97;;;;;;;;;;5034211;28;20044;-60
2023/07/05 01:03:50;;;;;;;4.38;2.95;;;;;;;;;;5040448;28;20056;-60
2023/07/05 01:06:21;;;;;;;8.00;3.50;;;;;;;;;;5036203;28;20486;-60
2023/07/05 01:08:48;;;;;;;6.35;3.20;;;;;;;;;;5029619;28;20037;-58
2023/07/05 01:11:14;;;;;;;5.38;3.05;;;;;;;;;;5020123;28;20042;-59
2023/07/05 01:13:52;;;;;;;6.28;2.90;;;;;;;;;;5021120;28;20524;-59
2023/07/05 01:16:33;;;;;;;10.85;3.30;;;;;;;;;;5036714;28;20422;-59
2023/07/05 01:19:20;;;;;;;5.65;3.13;;;;;;;;;;5039631;28;20064;-59
2023/07/05 01:21:57;;;;;;;5.65;2.67;;;;;;;;;;5031698;28;20049;-59
2023/07/05 01:24:44;;;;;;;9.38;2.80;;;;;;;;;;5039169;28;20056;-59
2023/07/05 01:27:25;;;;;;;7.07;2.90;;;;;;;;;;5032860;28;20034;-58
2023/07/05 01:30:16;;;;;;;5.57;3.22;;;;;;;;;;5027581;28;20055;-58
2023/07/05 01:32:55;;;;;;;9.82;2.97;;;;;;;;;;5029597;28;20056;-59
2023/07/05 01:35:27;;;;;;;7.60;2.88;;;;;;;;;;5028611;28;20370;-60
2023/07/05 01:37:53;;;;;;;5.93;2.80;;;;;;;;;;5029548;28;20045;-59
2023/07/05 01:40:19;;;;;;;5.03;2.78;;;;;;;;;;5032323;28;20065;-59
2023/07/05 01:42:52;;;;;;;6.88;3.00;;;;;;;;;;5032373;28;20069;-59
2023/07/05 01:45:31;;;;;;;6.20;2.80;;;;;;;;;;5024170;28;20036;-59
2023/07/05 01:48:20;;;;;;;7.38;2.90;;;;;;;;;;5032914;28;20049;-59
2023/07/05 01:50:55;;;;;;;7.68;2.97;;;;;;;;;;5036132;28;20037;-58
2023/07/05 01:53:46;;;;;;;6.95;3.20;;;;;;;;;;5044282;28;20049;-58
2023/07/05 01:56:20;;;;;;;6.10;3.10;;;;;;;;;;5029489;28;20401;-58
2023/07/05 01:58:49;;;;;;;6.28;3.17;;;;;;;;;;5031930;28;20037;-58
2023/07/05 02:01:17;;;;;;;7.10;3.47;;;;;;;;;;5033431;28;20056;-58
2023/07/05 02:03:49;;;;;;;6.45;2.85;;;;;;;;;;5034749;28;20032;-59
2023/07/05 02:06:17;;;;;;;6.40;3.15;;;;;;;;;;5021849;28;20030;-59
2023/07/05 02:08:48;;;;;;;5.60;2.97;;;;;;;;;;5031513;28;20414;-59
2023/07/05 02:11:15;;;;;;;6.22;3.00;;;;;;;;;;5042553;28;20024;-59
2023/07/05 02:13:42;;;;;;;6.55;2.80;;;;;;;;;;5032837;28;20397;-59
2023/07/05 02:16:08;;;;;;;10.75;3.20;;;;;;;;;;5037989;28;20045;-59
2023/07/05 02:18:34;;;;;;;5.97;3.00;;;;;;;;;;5033983;28;20051;-59
2023/07/05 02:21:00;;;;;;;6.30;3.38;;;;;;;;;;5035452;28;20059;-58
2023/07/05 02:23:26;;;;;;;7.07;3.03;;;;;;;;;;5029474;28;20040;-58
2023/07/05 02:25:58;;;;;;;8.35;3.05;;;;;;;;;;5032022;28;20396;-59
2023/07/05 02:28:24;;;;;;;9.50;3.13;;;;;;;;;;5038531;28;20041;-59
2023/07/05 02:30:50;;;;;;;6.47;3.25;;;;;;;;;;5030661;28;21530;-59
2023/07/05 02:33:16;;;;;;;6.63;3.17;;;;;;;;;;5034418;28;20060;-60
2023/07/05 02:35:42;;;;;;;7.53;2.80;;;;;;;;;;5036048;28;20049;-59
2023/07/05 02:38:08;;;;;;;9.02;2.60;;;;;;;;;;5023000;28;20052;-60
2023/07/05 02:40:34;;;;;;;6.97;2.97;;;;;;;;;;5032728;28;20050;-59
2023/07/05 02:43:01;;;;;;;5.10;3.00;;;;;;;;;;5038942;28;20040;-59
2023/07/05 02:45:27;;;;;;;5.78;2.63;;;;;;;;;;5023763;28;20914;-58
2023/07/05 02:47:54;;;;;;;7.78;3.20;;;;;;;;;;5037237;28;20029;-59
2023/07/05 02:50:20;;;;;;;6.35;2.83;;;;;;;;;;5031786;28;20033;-60
2023/07/05 02:52:47;;;;;;;4.90;2.53;;;;;;;;;;5029682;28;20042;-60
2023/07/05 02:55:15;;;;;;;6.85;2.65;;;;;;;;;;5031363;28;20398;-60
2023/07/05 02:57:41;;;;;;;8.48;3.00;;;;;;;;;;5039709;28;20048;-59
2023/07/05 03:00:08;;;;;;;7.30;3.08;;;;;;;;;;5035663;28;20033;-60
2023/07/05 03:02:34;;;;;;;5.88;2.72;;;;;;;;;;5032255;28;20060;-60
2023/07/05 03:05:12;;;;;;;7.07;2.78;;;;;;;;;;5029746;28;20041;-60
2023/07/05 03:07:38;;;;;;;9.57;2.92;;;;;;;;;;5031138;28;20049;-60
2023/07/05 03:10:05;;;;;;;6.03;3.25;;;;;;;;;;4996101;28;20041;-61
2023/07/05 03:12:32;;;;;;;7.88;3.10;;;;;;;;;;5026184;28;20413;-60
2023/07/05 03:14:58;;;;;;;8.60;3.08;;;;;;;;;;5015779;28;20395;-60
2023/07/05 03:17:25;;;;;;;11.05;3.63;;;;;;;;;;5031948;28;20045;-62
2023/07/05 03:19:54;;;;;;;12.65;3.67;;;;;;;;;;5030946;28;20060;-61
2023/07/05 03:22:20;;;;;;;10.68;4.32;;;;;;;;;;5022369;28;20048;-60
2023/07/05 03:24:46;;;;;;;7.63;3.42;;;;;;;;;;5030562;28;20498;-61
2023/07/05 03:27:13;;;;;;;8.25;3.65;;;;;;;;;;5043209;28;20045;-61
2023/07/05 03:29:39;;;;;;;8.98;3.95;;;;;;;;;;5025048;28;20502;-60
2023/07/05 03:32:07;;;;;;;7.55;3.83;;;;;;;;;;5021135;28;20033;-61
2023/07/05 03:34:33;;;;;;;11.63;3.80;;;;;;;;;;5032572;28;20042;-60
2023/07/05 03:36:59;;;;;;;8.88;4.18;;;;;;;;;;5026777;28;20041;-61
2023/07/05 03:39:25;;;;;;;11.02;4.07;;;;;;;;;;5028522;28;20056;-61
2023/07/05 03:41:51;;;;;;;8.32;3.58;;;;;;;;;;5033476;28;20491;-62
2023/07/05 03:44:21;;;;;;;9.98;3.88;;;;;;;;;;5032931;28;20517;-63
2023/07/05 03:46:49;;;;;;;6.47;3.38;;;;;;;;;;5028891;28;20025;-62
2023/07/05 03:49:16;;;;;;;6.75;3.13;;;;;;;;;;5042036;28;20402;-61
2023/07/05 03:51:42;;;;;;;8.60;3.40;;;;;;;;;;5032532;28;20035;-61
2023/07/05 03:54:08;;;;;;;12.43;4.63;;;;;;;;;;5025524;28;20041;-62
2023/07/05 03:56:35;;;;;;;9.45;3.88;;;;;;;;;;5030964;28;20526;-62
2023/07/05 03:59:01;;;;;;;6.65;3.40;;;;;;;;;;5030326;28;20049;-61
2023/07/05 04:01:29;;;;;;;7.55;3.25;;;;;;;;;;5036075;28;21512;-62
2023/07/05 04:04:00;;;;;;;7.45;3.15;;;;;;;;;;5023775;28;20029;-62
2023/07/05 04:06:30;;;;;;;6.75;3.35;;;;;;;;;;5029369;28;20033;-62
2023/07/05 04:08:56;;;;;;;;;;;;;;;;;;5041642;28;20386;-61
2023/07/05 04:11:23;;;;;;;7.95;2.70;;;;;;;;;;5029678;28;19913;-60
2023/07/05 04:13:50;;;;;;;5.13;2.65;;;;;;;;;;5029430;28;20052;-60
2023/07/05 04:16:19;;;;;;;4.72;2.25;;;;;;;;;;5027159;28;20030;-60
2023/07/05 04:18:46;;;;;;;7.05;2.92;;;;;;;;;;5043521;28;20490;-61
2023/07/05 04:21:13;;;;;;;5.55;2.83;;;;;;;;;;5041666;28;20033;-61
2023/07/05 04:23:40;;;;;;;7.63;2.53;;;;;;;;;;5027083;28;20410;-60
2023/07/05 04:26:11;;;;;;;6.13;2.33;;;;;;;;;;5031084;28;20398;-61
2023/07/05 04:28:38;;;;;;;3.58;1.98;;;;;;;;;;5033815;28;20422;-61
2023/07/05 04:31:07;;;;;;;3.78;2.03;;;;;;;;;;5028499;28;20054;-58
2023/07/05 04:33:33;;;;;;;3.95;2.40;;;;;;;;;;5034903;28;20485;-59
2023/07/05 04:36:00;;;;;;;2.50;1.55;;;;;;;;;;5030517;28;20037;-60
2023/07/05 04:38:27;;;;;;;5.43;2.55;;;;;;;;;;5028843;28;20038;-59
2023/07/05 04:40:53;;;;;;;4.93;2.83;;;;;;;;;;5029556;28;20026;-58
2023/07/05 04:43:19;;;;;;;3.75;1.52;;;;;;;;;;5033057;28;20026;-60
2023/07/05 04:45:53;;;;;;;5.90;1.70;;;;;;;;;;5024399;28;20050;-58
2023/07/05 04:48:19;;;;;;;3.80;1.40;;;;;;;;;;5038644;28;20037;-60
2023/07/05 04:50:52;;;;;;;2.60;1.63;;;;;;;;;;5035432;28;20057;-60
2023/07/05 04:53:19;;;;;;;4.00;1.60;;;;;;;;;;5031913;28;20041;-58
2023/07/05 04:55:46;;;;;;;2.67;1.80;;;;;;;;;;5047020;28;20045;-59
2023/07/05 05:01:03;;;;;;;;;;;;;;;;;;6093236;22;20276;-60
2023/07/05 05:03:31;;;;;;;2.33;1.30;;;;;;;;;;4950643;28;19922;-59
2023/07/05 05:05:57;;;;;;;3.80;1.80;;;;;;;;;;4957874;28;20404;-59
2023/07/05 05:08:24;;;;;;;2.92;1.60;;;;;;;;;;4960619;28;20381;-59
2023/07/05 05:10:56;;;;;;;3.70;1.67;;;;;;;;;;4961929;28;20404;-61
2023/07/05 05:13:22;;;;;;;3.03;1.60;;;;;;;;;;4975877;28;20499;-61
2023/07/05 05:15:49;;;;;;;2.72;1.70;;;;;;;;;;4980889;28;20038;-61
2023/07/05 05:18:16;;;;;;;2.75;1.70;;;;;;;;;;4979299;28;20037;-61
2023/07/05 05:20:43;;;;;;;3.38;1.60;;;;;;;;;;4971015;28;20471;-60
2023/07/05 05:23:09;;;;;;;3.35;1.80;;;;;;;;;;4973532;28;20034;-61
2023/07/05 05:25:35;;;;;;;3.90;1.90;;;;;;;;;;4972564;28;20035;-61
2023/07/05 05:28:02;;;;;;;3.63;2.15;;;;;;;;;;4973338;28;20027;-60
2023/07/05 05:30:31;;;;;;;3.42;2.20;;;;;;;;;;4971346;28;20496;-61
2023/07/05 05:32:57;;;;;;;7.17;2.30;;;;;;;;;;4972413;28;20491;-61
2023/07/05 05:35:24;;;;;;;5.28;2.50;;;;;;;;;;4974614;28;20046;-61
2023/07/05 05:37:50;;;;;;;4.22;2.42;;;;;;;;;;4974521;28;20050;-61
2023/07/05 05:40:16;;;;;;;3.35;2.35;;;;;;;;;;4972717;28;20395;-60
2023/07/05 05:42:42;;;;;;;5.22;2.72;;;;;;;;;;4972120;28;20034;-60
2023/07/05 05:45:09;;;;;;;5.15;2.88;;;;;;;;;;4972354;28;20475;-60
2023/07/05 05:47:35;;;;;;;6.13;2.67;;;;;;;;;;4971959;28;20039;-60
2023/07/05 05:50:01;;;;;;;4.63;2.53;;;;;;;;;;4975396;28;20030;-60
2023/07/05 05:52:28;;;;;;;7.18;2.92;;;;;;;;;;4973251;28;20047;-59
2023/07/05 05:54:54;;;;;;;5.60;2.72;;;;;;;;;;4972256;28;20030;-60
2023/07/05 05:57:20;;;;;;;6.10;3.00;;;;;;;;;;4972914;28;20023;-59
2023/07/05 05:59:46;;;;;;;7.68;3.20;;;;;;;;;;4972982;28;20468;-59
2023/07/05 06:02:13;;;;;;;5.32;2.53;;;;;;;;;;4971835;28;20046;-60
2023/07/05 06:04:39;;;;;;;6.45;3.38;;;;;;;;;;4973226;28;20042;-60
2023/07/05 06:07:05;;;;;;;6.15;3.40;;;;;;;;;;4972810;28;20230;-60
2023/07/05 06:09:37;;;;;;;9.70;3.08;;;;;;;;;;4974498;28;20046;-59
2023/07/05 06:12:04;;;;;;;4.03;2.45;;;;;;;;;;4970798;28;20400;-59
2023/07/05 06:14:30;;;;;;;6.35;2.85;;;;;;;;;;4972998;28;20039;-60
2023/07/05 06:16:56;;;;;;;4.18;2.35;;;;;;;;;;4977599;28;20380;-60
2023/07/05 06:19:22;;;;;;;6.55;2.60;;;;;;;;;;4971293;28;20229;-59
2023/07/05 06:21:48;;;;;;;4.90;2.40;;;;;;;;;;4969207;28;20042;-60
2023/07/05 06:24:15;;;;;;;5.57;2.70;;;;;;;;;;4964382;28;20053;-62
2023/07/05 06:26:41;;;;;;;4.38;2.60;;;;;;;;;;4964800;28;20062;-60
2023/07/05 06:29:07;;;;;;;6.25;2.47;;;;;;;;;;4975810;28;20034;-62
2023/07/05 06:31:33;;;;;;;5.60;2.60;;;;;;;;;;4972497;28;20511;-60
2023/07/05 06:34:00;;;;;;;4.70;2.60;;;;;;;;;;4971749;28;20042;-60
2023/07/05 06:36:26;;;;;;;5.60;3.33;;;;;;;;;;4956709;28;20396;-63
2023/07/05 06:38:52;;;;;;;5.88;2.70;;;;;;;;;;4973645;28;20455;-61
2023/07/05 06:41:19;;;;;;;5.35;3.20;;;;;;;;;;4974957;28;20039;-60
2023/07/05 06:43:45;;;;;;;6.30;2.30;;;;;;;;;;4970844;28;20047;-61
2023/07/05 06:46:11;;;;;;;5.78;2.55;;;;;;;;;;4971832;28;20392;-62
2023/07/05 06:48:37;;;;;;;15.35;7.05;;;;;;;;;;4971785;28;20051;-63
2023/07/05 06:51:03;;;;;;;4.20;2.22;;;;;;;;;;4971548;28;20038;-62
2023/07/05 06:53:30;;;;;;;4.82;2.33;;;;;;;;;;4971600;28;20059;-62
2023/07/05 06:55:56;;;;;;;7.35;2.50;;;;;;;;;;4974602;28;20046;-60
2023/07/05 06:58:22;;;;;;;5.22;2.50;;;;;;;;;;4971838;28;20038;-61
2023/07/05 07:00:50;;;;;;;6.15;2.80;;;;;;;;;;4973331;28;20038;-61
2023/07/05 07:03:17;;;;;;;5.93;2.90;;;;;;;;;;4970167;28;20042;-62
2023/07/05 07:05:54;;;;;;;4.85;2.55;;;;;;;;;;4973809;28;20042;-60
2023/07/05 07:08:21;;;;;;;5.88;2.10;;;;;;;;;;4970900;28;20364;-60
2023/07/05 07:10:48;;;;;;;4.70;2.55;;;;;;;;;;4972630;28;20038;-60
2023/07/05 07:13:14;;;;;;;5.40;2.28;;;;;;;;;;4973460;28;20530;-62
2023/07/05 07:15:41;;;;;;;5.05;2.40;;;;;;;;;;4972550;28;20459;-60
2023/07/05 07:18:08;;;;;;;13.45;3.25;;;;;;;;;;4976543;28;20038;-63
2023/07/05 07:20:35;;;;;;;9.48;3.75;;;;;;;;;;4978102;28;20053;-61
2023/07/05 07:23:01;;;;;;;8.25;3.28;;;;;;;;;;4961001;28;20047;-63
2023/07/05 07:25:28;;;;;;;9.63;3.17;;;;;;;;;;4953312;28;20042;-61
2023/07/05 07:27:54;;;;;;;10.70;2.90;;;;;;;;;;4962047;28;20039;-61
2023/07/05 07:30:20;;;;;;;4.53;2.40;;;;;;;;;;4964323;28;20043;-60
2023/07/05 07:32:47;;;;;;;5.82;2.10;;;;;;;;;;4968460;28;20049;-61
2023/07/05 07:35:14;;;;;;;4.55;2.30;;;;;;;;;;4967040;28;20042;-61
2023/07/05 07:37:40;;;;;;;5.72;2.60;;;;;;;;;;4966415;28;20140;-61
2023/07/05 07:40:08;;;;;;;6.32;3.50;;;;;;;;;;4963748;28;20531;-61
2023/07/05 07:42:34;;;;;;;3.92;2.60;;;;;;;;;;4967213;28;20050;-60
2023/07/05 07:45:00;;;;;;;6.75;2.80;;;;;;;;;;4967532;28;20487;-60
2023/07/05 07:47:26;;;;;;;9.10;3.20;;;;;;;;;;4968746;28;20031;-60
2023/07/05 07:49:53;;;;;;;4.40;2.33;;;;;;;;;;4965121;28;20106;-61
2023/07/05 07:52:19;;;;;;;6.30;2.97;;;;;;;;;;4965300;28;20050;-62
2023/07/05 07:54:45;;;;;;;5.80;2.63;;;;;;;;;;4967420;28;20038;-61
2023/07/05 07:57:12;;;;;;;4.28;2.60;;;;;;;;;;4967658;28;20031;-61
2023/07/05 07:59:41;;;;;;;6.13;3.10;;;;;;;;;;4968093;28;20073;-60
2023/07/05 08:02:12;;;;;;;5.75;2.50;;;;;;;;;;4968568;28;20046;-59
2023/07/05 08:04:42;;;;;;;3.70;2.00;;;;;;;;;;4968133;28;20065;-60
2023/07/05 08:07:08;;;;;;;3.25;1.58;;;;;;;;;;4969009;28;20468;-60
2023/07/05 08:09:34;;;;;;;3.08;2.00;;;;;;;;;;4965842;28;20038;-61
2023/07/05 08:12:01;;;;;;;3.45;1.92;;;;;;;;;;4961469;28;20058;-59
2023/07/05 08:14:28;;;;;;;4.43;1.85;;;;;;;;;;4963880;28;20031;-59
2023/07/05 08:16:54;;;;;;;2.58;1.30;;;;;;;;;;4970996;28;20057;-60
2023/07/05 08:19:20;;;;;;;3.42;1.20;;;;;;;;;;4967977;28;20407;-62
2023/07/05 08:21:47;;;;;;;4.88;1.35;;;;;;;;;;4963363;28;20650;-62
2023/07/05 08:24:14;;;;;;;2.42;1.17;;;;;;;;;;4967333;28;20042;-62
2023/07/05 08:26:41;;;;;;;3.15;1.33;;;;;;;;;;4964047;28;20085;-62
2023/07/05 08:29:10;;;;;;;5.97;1.33;;;;;;;;;;4967046;28;20038;-62
2023/07/05 08:31:37;;;;;;;2.85;1.02;;;;;;;;;;4964273;28;20039;-62
2023/07/05 08:34:03;;;;;;;1.00;0.60;;;;;;;;;;4970320;28;20042;-62
2023/07/05 08:36:32;;;;;;;5.35;1.40;;;;;;;;;;4967631;28;20046;-62
2023/07/05 08:38:59;;;;;;;1.90;1.00;;;;;;;;;;4967180;28;20034;-62
2023/07/05 08:41:25;;;;;;;1.77;1.00;;;;;;;;;;4964000;28;20611;-62
2023/07/05 08:44:10;;;;;;;2.90;1.13;;;;;;;;;;4970800;28;20444;-61
2023/07/05 08:46:38;;;;;;;2.67;1.23;;;;;;;;;;4963034;28;20046;-62
2023/07/05 08:49:13;;;;;;;3.07;1.07;;;;;;;;;;4968063;28;20062;-62
2023/07/05 08:51:41;;;;;;;2.88;1.02;;;;;;;;;;4967274;28;20583;-62
2023/07/05 08:54:13;;;;;;;5.60;1.55;;;;;;;;;;4970879;28;20038;-61
2023/07/05 08:56:57;;;;;;;4.05;1.55;;;;;;;;;;4968770;28;20042;-61
2023/07/05 08:59:30;;;;;;;3.35;1.30;;;;;;;;;;4967208;28;20046;-61
2023/07/05 09:01:57;;;;;;;2.58;1.35;;;;;;;;;;4947596;28;20520;-61
2023/07/05 09:04:29;;;;;;;2.53;1.33;;;;;;;;;;4967869;28;20038;-62
2023/07/05 09:07:20;;;;;;;2.35;1.38;;;;;;;;;;4964916;28;20038;-62
2023/07/05 09:10:13;;;;;;;4.38;1.60;;;;;;;;;;4969022;28;20042;-62
2023/07/05 09:12:59;;;;;;;3.42;1.35;;;;;;;;;;4964256;28;20038;-62
2023/07/05 09:15:45;;;;;;;3.58;1.60;;;;;;;;;;4965812;28;20065;-62
2023/07/05 09:18:45;;;;;;;2.45;1.58;;;;;;;;;;4967596;28;22301;-62
2023/07/05 09:21:30;;;;;;;4.25;1.98;;;;;;;;;;4966960;28;20047;-62
2023/07/05 09:24:03;;;;;;;3.92;1.88;;;;;;;;;;4965843;28;20031;-61
2023/07/05 09:26:35;;;;;;;3.97;1.80;;;;;;;;;;4967184;28;20051;-61
2023/07/05 09:29:13;;;;;;;3.75;1.80;;;;;;;;;;4966676;28;20043;-62
2023/07/05 09:31:41;;;;;;;2.95;1.75;;;;;;;;;;4958061;28;20088;-61
2023/07/05 09:34:31;;;;;;;4.50;2.20;;;;;;;;;;4970772;28;20035;-61
2023/07/05 09:36:59;;;;;;;6.13;1.80;;;;;;;;;;4969713;28;20054;-62
2023/07/05 09:39:53;;;;;;;4.40;2.03;;;;;;;;;;4970847;28;20408;-61
2023/07/05 09:42:26;;;;;;;4.35;1.77;;;;;;;;;;4967235;28;20030;-61
2023/07/05 09:44:52;;;;;;;4.32;1.88;;;;;;;;;;4972351;28;20487;-61
2023/07/05 09:47:20;;;;;;;3.42;1.65;;;;;;;;;;4971060;28;20408;-61
2023/07/05 09:49:46;;;;;;;3.30;1.60;;;;;;;;;;4972414;28;20054;-61
2023/07/05 09:52:13;;;;;;;2.63;1.65;;;;;;;;;;4969950;28;20047;-61
2023/07/05 09:54:41;;;;;;;3.72;1.85;;;;;;;;;;4970867;28;20038;-61
2023/07/05 09:57:09;;;;;;;4.10;1.90;;;;;;;;;;4969322;28;20042;-61
2023/07/05 09:59:37;;;;;;;3.00;1.88;;;;;;;;;;4969440;28;20624;-62
2023/07/05 10:02:15;;;;;;;4.03;1.85;;;;;;;;;;4968063;28;20460;-61
2023/07/05 10:04:47;;;;;;;4.85;2.10;;;;;;;;;;4968591;28;20062;-61
2023/07/05 10:07:29;;;;;;;4.60;2.30;;;;;;;;;;4967365;28;20050;-61
2023/07/05 10:10:03;;;;;;;2.95;1.80;;;;;;;;;;4969736;28;20053;-61
2023/07/05 10:12:35;;;;;;;7.75;2.13;;;;;;;;;;4969561;28;20047;-61
2023/07/05 10:15:03;;;;;;;4.70;1.95;;;;;;;;;;4967459;28;20431;-61
2023/07/05 10:17:41;;;;;;;3.95;2.15;;;;;;;;;;4968848;28;20031;-61
2023/07/05 10:20:17;;;;;;;3.60;2.17;;;;;;;;;;4967707;28;20042;-61
2023/07/05 10:22:43;;;;;;;6.75;2.20;;;;;;;;;;4964040;28;20031;-61
2023/07/05 10:25:20;;;;;;;5.40;2.30;;;;;;;;;;4970101;28;20385;-61
2023/07/05 10:27:49;;;;;;;3.60;2.30;;;;;;;;;;4967663;28;20042;-61
2023/07/05 10:30:18;;;;;;;5.93;2.45;;;;;;;;;;4968564;28;20510;-61
2023/07/05 10:32:50;;;;;;;4.40;2.17;;;;;;;;;;4966694;28;20245;-61
2023/07/05 10:35:28;;;;;;;4.20;2.50;;;;;;;;;;4967879;28;20081;-61
2023/07/05 10:37:55;;;;;;;3.90;2.50;;;;;;;;;;4968608;28;20453;-61
2023/07/05 10:40:23;;;;;;;5.55;2.85;;;;;;;;;;4968360;28;20511;-61
2023/07/05 10:43:00;;;;;;;4.47;2.53;;;;;;;;;;4963215;28;20035;-61
2023/07/05 10:45:34;;;;;;;5.80;2.28;;;;;;;;;;4966308;28;20507;-61
2023/07/05 10:48:01;;;;;;;4.00;2.20;;;;;;;;;;4967529;28;20408;-61
2023/07/05 10:50:37;;;;;;;5.55;2.38;;;;;;;;;;4973244;28;20050;-61
2023/07/05 10:53:10;;;;;;;5.75;2.90;;;;;;;;;;4967874;28;20035;-62
2023/07/05 10:55:58;;;;;;;9.77;2.78;;;;;;;;;;4967927;28;20049;-58
2023/07/05 10:58:34;;;;;;;4.70;2.55;;;;;;;;;;4967320;28;20050;-59
2023/07/05 11:01:21;;;;;;;7.15;2.95;;;;;;;;;;4966649;28;20038;-58
2023/07/05 11:03:53;;;;;;;5.20;2.60;;;;;;;;;;4968523;28;20038;-62
2023/07/05 11:06:20;;;;;;;5.68;3.10;;;;;;;;;;4968472;28;20047;-61
2023/07/05 11:08:46;;;;;;;6.65;2.90;;;;;;;;;;4966468;28;20077;-59
2023/07/05 11:11:18;;;;;;;5.53;2.88;;;;;;;;;;4966547;28;20037;-59
2023/07/05 11:13:46;;;;;;;5.68;2.50;;;;;;;;;;4964410;28;20427;-60
2023/07/05 11:16:27;;;;;;;5.55;2.70;;;;;;;;;;4963473;28;20054;-60
2023/07/05 11:19:10;;;;;;;5.15;2.60;;;;;;;;;;4965500;28;20037;-60
2023/07/05 11:21:38;;;;;;;10.30;3.20;;;;;;;;;;4963573;28;20050;-59
2023/07/05 11:24:09;;;;;;;5.43;3.17;;;;;;;;;;4962267;28;20038;-59
2023/07/05 11:26:41;;;;;;;7.57;3.35;;;;;;;;;;4964551;28;20062;-59
2023/07/05 11:29:32;;;;;;;6.13;3.67;;;;;;;;;;4964839;28;20127;-61
2023/07/05 11:32:05;;;;;;;7.93;3.35;;;;;;;;;;4964173;28;20400;-62
2023/07/05 11:34:32;;;;;;;7.50;3.72;;;;;;;;;;4965974;28;20050;-62
2023/07/05 11:37:04;;;;;;;8.48;4.10;;;;;;;;;;4969083;28;20043;-62
2023/07/05 11:39:35;;;;;;;7.18;4.18;;;;;;;;;;4967760;28;20396;-62
2023/07/05 11:42:16;;;;;;;7.63;3.60;;;;;;;;;;4967331;28;20057;-62
2023/07/05 11:44:48;;;;;;;7.65;3.58;;;;;;;;;;4968994;28;20045;-62
2023/07/05 11:47:23;;;;;;;7.95;3.90;;;;;;;;;;4967477;28;20038;-61
2023/07/05 11:49:57;;;;;;;7.97;3.88;;;;;;;;;;4965376;28;20468;-62
2023/07/05 11:52:26;;;;;;;6.68;3.42;;;;;;;;;;4965250;28;20065;-62
2023/07/05 11:55:08;;;;;;;6.70;4.15;;;;;;;;;;4966225;28;20042;-62
2023/07/05 11:57:52;;;;;;;7.30;3.55;;;;;;;;;;4967659;28;20038;-62
2023/07/05 12:00:29;;;;;;;6.43;3.70;;;;;;;;;;4968130;28;20035;-62
2023/07/05 12:03:06;;;;;;;10.40;4.00;;;;;;;;;;4966319;28;20030;-62
2023/07/05 12:05:33;;;;;;;6.53;3.53;;;;;;;;;;4967643;28;20046;-62
2023/07/05 12:08:21;;;;;;;6.43;3.65;;;;;;;;;;4966912;28;20061;-62
2023/07/05 12:10:55;;;;;;;7.22;3.38;;;;;;;;;;4968763;28;20031;-62
2023/07/05 12:13:24;;;;;;;6.32;3.30;;;;;;;;;;4963133;28;20486;-62
2023/07/05 12:15:52;;;;;;;8.43;4.35;;;;;;;;;;4958712;28;20162;-63
2023/07/05 12:18:20;;;;;;;7.10;3.72;;;;;;;;;;4965258;28;20037;-62
2023/07/05 12:20:49;;;;;;;6.88;3.65;;;;;;;;;;4967590;28;20034;-63
2023/07/05 12:23:18;;;;;;;7.47;3.50;;;;;;;;;;4968789;28;20039;-62
2023/07/05 12:25:50;;;;;;;7.88;3.25;;;;;;;;;;4964865;28;20154;-62
2023/07/05 12:28:21;;;;;;;6.15;3.22;;;;;;;;;;4968436;28;20493;-61
2023/07/05 12:30:48;;;;;;;8.93;3.95;;;;;;;;;;4964974;28;20035;-62
2023/07/05 12:33:31;;;;;;;6.53;3.67;;;;;;;;;;4966457;28;20042;-62
2023/07/05 12:36:18;;;;;;;6.97;4.05;;;;;;;;;;4965840;28;20037;-62
2023/07/05 12:38:47;;;;;;;7.00;3.90;;;;;;;;;;4967593;28;20041;-62
2023/07/05 12:41:19;;;;;;;6.05;3.90;;;;;;;;;;4960573;28;20065;-61
2023/07/05 12:43:57;;;;;;;7.93;3.80;;;;;;;;;;4963004;28;20500;-59
2023/07/05 12:46:26;;;;;;;7.45;3.65;;;;;;;;;;4965570;28;20035;-62
2023/07/05 12:48:53;;;;;;;6.65;3.70;;;;;;;;;;4965923;28;20046;-61
2023/07/05 12:51:26;;;;;;;7.60;4.00;;;;;;;;;;4963861;28;20039;-62
2023/07/05 12:53:58;;;;;;;8.07;4.60;;;;;;;;;;4967536;28;20046;-59
2023/07/05 12:56:36;;;;;;;8.88;4.55;;;;;;;;;;4966124;28;20052;-62
2023/07/05 12:59:07;;;;;;;6.97;3.72;;;;;;;;;;4963999;28;20027;-61
2023/07/05 13:01:40;;;;;;;18.30;12.35;;;;;;;;;;4962217;28;20038;-62
2023/07/05 13:04:17;;;;;;;10.18;6.32;;;;;;;;;;4966491;28;20400;-61
2023/07/05 13:06:46;;;;;;;7.25;4.28;;;;;;;;;;4964847;28;20065;-62
2023/07/05 13:09:14;;;;;;;5.68;3.63;;;;;;;;;;4968742;28;20054;-63
2023/07/05 13:11:56;;;;;;;10.03;4.07;;;;;;;;;;4968680;28;20441;-63
2023/07/05 13:14:28;;;;;;;7.70;4.53;;;;;;;;;;4970109;28;20795;-62
2023/07/05 13:16:57;;;;;;;6.32;3.75;;;;;;;;;;4968137;28;20194;-63
2023/07/05 13:19:39;;;;;;;7.93;4.30;;;;;;;;;;4970777;28;20043;-62
2023/07/05 13:22:23;;;;;;;7.28;3.80;;;;;;;;;;4968704;28;20403;-63
2023/07/05 13:24:50;;;;;;;6.45;3.83;;;;;;;;;;4968577;28;20039;-63
2023/07/05 13:27:19;;;;;;;7.55;3.55;;;;;;;;;;4968170;28;20039;-63
2023/07/05 13:29:47;;;;;;;7.75;3.55;;;;;;;;;;4968410;28;20040;-63
2023/07/05 13:32:37;;;;;;;9.37;4.03;;;;;;;;;;4968697;28;20034;-63
2023/07/05 13:35:04;;;;;;;7.80;4.00;;;;;;;;;;4963896;28;20039;-62
2023/07/05 13:37:30;;;;;;;7.25;3.75;;;;;;;;;;4970842;28;20035;-62
2023/07/05 13:40:09;;;;;;;8.45;4.07;;;;;;;;;;4970530;28;20033;-62
2023/07/05 13:42:37;;;;;;;7.60;3.90;;;;;;;;;;4970860;28;20035;-62
2023/07/05 13:45:09;;;;;;;6.65;4.13;;;;;;;;;;4969960;28;20137;-62
2023/07/05 13:47:36;;;;;;;7.28;3.58;;;;;;;;;;4971371;28;20034;-62
2023/07/05 13:50:02;;;;;;;7.43;4.00;;;;;;;;;;4967434;28;20046;-62
2023/07/05 13:52:28;;;;;;;7.18;3.95;;;;;;;;;;4967636;28;20031;-62
2023/07/05 13:54:54;;;;;;;7.15;3.95;;;;;;;;;;4968858;28;20504;-62
2023/07/05 13:57:20;;;;;;;6.55;4.07;;;;;;;;;;4968951;28;20058;-62
2023/07/05 13:59:47;;;;;;;7.45;3.92;;;;;;;;;;4982586;28;20050;-62
2023/07/05 14:02:27;;;;;;;8.80;3.85;;;;;;;;;;4962270;28;20035;-63
2023/07/05 14:04:54;;;;;;;6.82;3.67;;;;;;;;;;4956703;28;20511;-62
2023/07/05 14:07:21;;;;;;;6.28;3.38;;;;;;;;;;4969920;28;20031;-62
2023/07/05 14:09:47;;;;;;;5.45;3.05;;;;;;;;;;4965567;28;20039;-62
2023/07/05 14:12:18;;;;;;;5.47;3.42;;;;;;;;;;4968619;28;20035;-63
2023/07/05 14:14:44;;;;;;;6.18;3.53;;;;;;;;;;4968067;28;20042;-63
2023/07/05 14:17:16;;;;;;;4.93;3.20;;;;;;;;;;4968720;28;20037;-63
2023/07/05 14:19:43;;;;;;;6.45;3.33;;;;;;;;;;4948416;28;20038;-63
2023/07/05 14:22:21;;;;;;;5.63;3.30;;;;;;;;;;4963005;28;20030;-63
2023/07/05 14:24:48;;;;;;;7.35;3.65;;;;;;;;;;4966301;28;20400;-62
2023/07/05 14:27:18;;;;;;;7.05;3.50;;;;;;;;;;4967362;28;20050;-61
2023/07/05 14:29:46;;;;;;;5.18;2.92;;;;;;;;;;4969459;28;20400;-62
2023/07/05 14:32:13;;;;;;;5.93;3.10;;;;;;;;;;4968116;28;20050;-62
2023/07/05 14:34:40;;;;;;;10.07;3.40;;;;;;;;;;4967991;28;20117;-62
2023/07/05 14:37:06;;;;;;;4.05;2.88;;;;;;;;;;4967725;28;20471;-63
2023/07/05 14:39:32;;;;;;;5.25;2.92;;;;;;;;;;4968517;28;20061;-62
2023/07/05 14:41:59;;;;;;;6.25;2.80;;;;;;;;;;4966464;28;20050;-61
2023/07/05 14:44:25;;;;;;;6.47;3.00;;;;;;;;;;4968621;28;20042;-62
2023/07/05 14:46:52;;;;;;;5.47;3.00;;;;;;;;;;4967971;28;20467;-62
2023/07/05 14:49:18;;;;;;;5.68;2.80;;;;;;;;;;4965616;28;20039;-63
2023/07/05 14:51:45;;;;;;;6.15;2.60;;;;;;;;;;4964641;28;20046;-63
2023/07/05 14:54:11;;;;;;;7.43;2.80;;;;;;;;;;4965736;28;20091;-61
2023/07/05 14:56:38;;;;;;;5.72;2.70;;;;;;;;;;4958284;28;20042;-61
2023/07/05 14:59:05;;;;;;;5.70;3.00;;;;;;;;;;4968416;28;20033;-61
2023/07/05 15:01:32;;;;;;;5.47;2.87;;;;;;;;;;4965815;28;20051;-61
2023/07/05 15:03:59;;;;;;;4.97;2.90;;;;;;;;;;4966257;28;20038;-62